24h
KLIENDITUGI:
Saartelennuliinid: +372 58856336 (24/7)
Estairi piletikassa lennujaamas:
+372 6058887; +372 55603687

07.11.2018 hommikune Transaviabaltika lend KTB680 Tallinn - Kuressaare ja KTB681 Kuressaare – Tallinn väljalend jääb ära. Lennu ära jäämise põhjustab ilmastikuolu Kuressaare lennuväljal. Reisijatele võimaldatakse tasuta lennupileti ümberbroneerimine reisija soovi kohasele mõnele teisele Tallinn-Kuressaare või Kuressaare-Tallinn lennule. Reisijatele kes ei soovi lennupileti ümberbroneerimist teisele lennule tagastatakse piletiraha. Oma soovist tuleb teada anda e-mailile [email protected] Lisainformatsioon telefonil 58856336.

EEKE Kuressaare lennuväli FCEO32 EETN 070600

TAF EEKE 070600Z 0707/0713 16008KT 0400 FG VV002 TEMPO 0707/0710 2000

BR BKN003 BECMG 0710/0712 4000 BR BKN005=

METAR EEKE 070950Z 15008KT 0150 R17/0275 FG VV002 07/07 Q1019=
Kuupäev: 
07/11/2018